Time,TemperatureF,DewpointF,PressureIn,WindDirection,WindDirectionDegrees,WindSpeedMPH,WindSpeedGustMPH,Humidity,HourlyPrecipIn,Conditions,Clouds,dailyrainin,SoftwareType,DateUTC
2013-10-02 01:03:00,46.0,-99.9,29.72,SW,225,0.0,0.0,0,-99.99,,,0.00,,2013-10-02 05:03:00,
2013-10-02 01:43:00,46.0,-99.9,29.72,SW,225,0.0,0.0,0,-99.99,,,0.00,,2013-10-02 05:43:00,
2013-10-02 01:53:00,46.0,-99.9,29.72,SW,225,0.0,0.0,0,-99.99,,,0.00,,2013-10-02 05:53:00,
2013-10-02 02:42:00,45.0,-99.9,29.71,SW,225,0.0,0.0,0,-99.99,,,0.00,,2013-10-02 06:42:00,
2013-10-02 02:52:00,45.0,-99.9,29.71,SW,225,0.0,0.0,0,-99.99,,,0.00,,2013-10-02 06:52:00,
2013-10-02 03:02:00,45.0,-99.9,29.71,SW,225,0.0,0.0,0,-99.99,,,0.00,,2013-10-02 07:02:00,
2013-10-02 03:03:00,44.0,-99.9,29.69,SW,225,0.0,3.0,0,-99.99,,,0.00,,2013-10-02 07:03:00,
2013-10-02 03:42:00,44.0,-99.9,29.69,SW,225,0.0,3.0,0,-99.99,,,0.00,,2013-10-02 07:42:00,
2013-10-02 03:52:00,44.0,-99.9,29.69,SW,225,0.0,3.0,0,-99.99,,,0.00,,2013-10-02 07:52:00,
2013-10-02 04:42:00,48.0,-99.9,29.68,WSW,247,4.0,9.0,0,-99.99,,,0.00,,2013-10-02 08:42:00,
2013-10-02 04:52:00,48.0,-99.9,29.68,WSW,247,4.0,9.0,0,-99.99,,,0.00,,2013-10-02 08:52:00,
2013-10-02 05:02:00,48.0,-99.9,29.68,WSW,247,4.0,9.0,0,-99.99,,,0.00,,2013-10-02 09:02:00,
2013-10-02 05:03:00,50.0,-99.9,29.67,West,270,2.0,8.0,0,-99.99,,,-99.99,,2013-10-02 09:03:00,
2013-10-02 05:43:00,50.0,-99.9,29.67,West,270,2.0,8.0,0,-99.99,,,-99.99,,2013-10-02 09:43:00,
2013-10-02 05:54:00,50.0,-99.9,29.67,West,270,2.0,8.0,0,-99.99,,,-99.99,,2013-10-02 09:54:00,
2013-10-02 06:03:00,48.0,-99.9,29.66,South,180,0.0,8.0,0,-99.99,,,0.00,,2013-10-02 10:03:00,
2013-10-02 06:42:00,48.0,-99.9,29.66,South,180,0.0,8.0,0,-99.99,,,0.00,,2013-10-02 10:42:00,
2013-10-02 06:53:00,48.0,-99.9,29.66,South,180,0.0,8.0,0,-99.99,,,0.00,,2013-10-02 10:53:00,
2013-10-02 07:43:00,53.0,-99.9,29.65,SW,225,6.0,9.0,0,-99.99,,,0.00,,2013-10-02 11:43:00,
2013-10-02 07:52:00,53.0,-99.9,29.65,SW,225,6.0,9.0,0,-99.99,,,0.00,,2013-10-02 11:52:00,
2013-10-02 08:02:00,53.0,-99.9,29.65,SW,225,6.0,9.0,0,-99.99,,,0.00,,2013-10-02 12:02:00,
2013-10-02 08:42:00,54.0,-99.9,29.65,WSW,247,6.0,8.0,0,-99.99,,,0.00,,2013-10-02 12:42:00,
2013-10-02 08:52:00,54.0,-99.9,29.65,WSW,247,6.0,8.0,0,-99.99,,,0.00,,2013-10-02 12:52:00,
2013-10-02 09:02:00,54.0,-99.9,29.65,WSW,247,6.0,8.0,0,-99.99,,,0.00,,2013-10-02 13:02:00,
2013-10-02 09:42:00,59.0,-99.9,29.63,NNW,337,5.0,15.0,0,-99.99,,,0.00,,2013-10-02 13:42:00,
2013-10-02 09:52:00,59.0,-99.9,29.63,NNW,337,5.0,15.0,0,-99.99,,,0.00,,2013-10-02 13:52:00,
2013-10-02 10:02:00,59.0,-99.9,29.63,NNW,337,5.0,15.0,0,-99.99,,,0.00,,2013-10-02 14:02:00,
2013-10-02 10:42:00,61.0,-99.9,29.61,SW,225,10.0,19.0,0,-99.99,,,0.00,,2013-10-02 14:42:00,
2013-10-02 10:52:00,61.0,-99.9,29.61,SW,225,10.0,19.0,0,-99.99,,,0.00,,2013-10-02 14:52:00,
2013-10-02 11:02:00,61.0,-99.9,29.61,SW,225,10.0,19.0,0,-99.99,,,0.00,,2013-10-02 15:02:00,
2013-10-02 11:03:00,63.0,-99.9,29.59,NW,315,10.0,20.0,0,-99.99,,,0.00,,2013-10-02 15:03:00,
2013-10-02 11:43:00,63.0,-99.9,29.59,NW,315,10.0,20.0,0,-99.99,,,0.00,,2013-10-02 15:43:00,
2013-10-02 11:54:00,63.0,-99.9,29.59,NW,315,10.0,20.0,0,-99.99,,,0.00,,2013-10-02 15:54:00,
2013-10-02 12:03:00,64.0,-99.9,29.58,WSW,247,10.0,21.0,0,-99.99,,,0.00,,2013-10-02 16:03:00,
2013-10-02 12:43:00,64.0,-99.9,29.58,WSW,247,10.0,21.0,0,-99.99,,,0.00,,2013-10-02 16:43:00,
2013-10-02 12:53:00,64.0,-99.9,29.58,WSW,247,10.0,21.0,0,-99.99,,,0.00,,2013-10-02 16:53:00,
2013-10-02 13:42:00,69.0,-99.9,29.55,NW,315,8.0,20.0,0,-99.99,,,0.00,,2013-10-02 17:42:00,
2013-10-02 13:53:00,69.0,-99.9,29.55,NW,315,8.0,20.0,0,-99.99,,,0.00,,2013-10-02 17:53:00,
2013-10-02 14:02:00,69.0,-99.9,29.55,NW,315,8.0,20.0,0,-99.99,,,0.00,,2013-10-02 18:02:00,
2013-10-02 14:52:00,71.0,-99.9,29.53,NNW,337,7.0,25.0,0,-99.99,,,0.00,,2013-10-02 18:52:00,
2013-10-02 15:02:00,71.0,-99.9,29.53,NNW,337,7.0,25.0,0,-99.99,,,0.00,,2013-10-02 19:02:00,
2013-10-02 15:42:00,71.0,-99.9,29.54,NW,315,16.0,24.0,0,-99.99,,,0.00,,2013-10-02 19:42:00,
2013-10-02 15:52:00,71.0,-99.9,29.54,NW,315,16.0,24.0,0,-99.99,,,0.00,,2013-10-02 19:52:00,
2013-10-02 16:02:00,71.0,-99.9,29.54,NW,315,16.0,24.0,0,-99.99,,,0.00,,2013-10-02 20:02:00,
2013-10-02 16:42:00,69.0,-99.9,29.55,NW,315,8.0,21.0,0,-99.99,,,0.00,,2013-10-02 20:42:00,
2013-10-02 16:52:00,69.0,-99.9,29.55,NW,315,8.0,21.0,0,-99.99,,,0.00,,2013-10-02 20:52:00,
2013-10-02 17:02:00,69.0,-99.9,29.55,NW,315,8.0,21.0,0,-99.99,,,0.00,,2013-10-02 21:02:00,
2013-10-02 17:03:00,69.0,-99.9,29.57,NNW,337,10.0,21.0,0,-99.99,,,0.00,,2013-10-02 21:03:00,
2013-10-02 17:44:00,69.0,-99.9,29.57,NNW,337,10.0,21.0,0,-99.99,,,0.00,,2013-10-02 21:44:00,
2013-10-02 17:55:00,69.0,-99.9,29.57,NNW,337,10.0,21.0,0,-99.99,,,0.00,,2013-10-02 21:55:00,
2013-10-02 18:03:00,66.0,-99.9,29.60,NW,315,4.0,16.0,0,-99.99,,,0.00,,2013-10-02 22:03:00,
2013-10-02 18:44:00,66.0,-99.9,29.60,NW,315,4.0,16.0,0,-99.99,,,0.00,,2013-10-02 22:44:00,
2013-10-02 18:54:00,66.0,-99.9,29.60,NW,315,4.0,16.0,0,-99.99,,,0.00,,2013-10-02 22:54:00,
2013-10-02 19:42:00,64.0,-99.9,29.62,NNW,337,5.0,9.0,0,-99.99,,,0.00,,2013-10-02 23:42:00,
2013-10-02 19:52:00,64.0,-99.9,29.62,NNW,337,5.0,9.0,0,-99.99,,,0.00,,2013-10-02 23:52:00,
2013-10-02 20:02:00,64.0,-99.9,29.62,NNW,337,5.0,9.0,0,-99.99,,,0.00,,2013-10-03 00:02:00,
2013-10-02 20:42:00,64.0,-99.9,29.65,North,360,15.0,16.0,0,-99.99,,,0.00,,2013-10-03 00:42:00,
2013-10-02 20:52:00,64.0,-99.9,29.65,North,360,15.0,16.0,0,-99.99,,,0.00,,2013-10-03 00:52:00,
2013-10-02 21:02:00,64.0,-99.9,29.65,North,360,15.0,16.0,0,-99.99,,,0.00,,2013-10-03 01:02:00,
2013-10-02 21:52:00,61.0,-99.9,29.67,North,360,5.0,16.0,0,-99.99,,,0.00,,2013-10-03 01:52:00,
2013-10-02 22:02:00,61.0,-99.9,29.67,North,360,5.0,16.0,0,-99.99,,,0.00,,2013-10-03 02:02:00,
2013-10-02 23:03:00,57.0,-99.9,29.72,NNW,337,5.0,11.0,0,-99.99,,,0.00,,2013-10-03 03:03:00,
2013-10-02 23:45:00,57.0,-99.9,29.72,NNW,337,5.0,11.0,0,-99.99,,,0.00,,2013-10-03 03:45:00,
2013-10-02 23:55:00,57.0,-99.9,29.72,NNW,337,5.0,11.0,0,-99.99,,,0.00,,2013-10-03 03:55:00,